sensor_id;sensor_type;location;lat;lon;timestamp;P1;durP1;ratioP1;P2;durP2;ratioP2
68192;SDS011;55012;47.562;18.414;2023-05-07T00:00:18;15.77;;;9.60;;
68192;SDS011;55012;47.562;18.414;2023-05-07T00:02:47;14.23;;;8.80;;
68192;SDS011;55012;47.562;18.414;2023-05-07T00:05:12;13.90;;;9.10;;
68192;SDS011;55012;47.562;18.414;2023-05-07T00:07:38;17.67;;;10.02;;
68192;SDS011;55012;47.562;18.414;2023-05-07T00:10:04;16.70;;;10.20;;
68192;SDS011;55012;47.562;18.414;2023-05-07T00:12:31;16.17;;;10.32;;
68192;SDS011;55012;47.562;18.414;2023-05-07T00:14:58;15.43;;;10.30;;
68192;SDS011;55012;47.562;18.414;2023-05-07T00:17:24;19.48;;;10.50;;
68192;SDS011;55012;47.562;18.414;2023-05-07T00:19:50;17.83;;;10.77;;
68192;SDS011;55012;47.562;18.414;2023-05-07T00:22:15;17.42;;;11.07;;
68192;SDS011;55012;47.562;18.414;2023-05-07T00:24:41;26.50;;;15.55;;
68192;SDS011;55012;47.562;18.414;2023-05-07T00:27:06;18.23;;;11.38;;
68192;SDS011;55012;47.562;18.414;2023-05-07T00:29:32;22.17;;;12.45;;
68192;SDS011;55012;47.562;18.414;2023-05-07T00:31:57;17.77;;;10.95;;
68192;SDS011;55012;47.562;18.414;2023-05-07T00:34:23;18.15;;;10.85;;
68192;SDS011;55012;47.562;18.414;2023-05-07T00:36:48;13.80;;;8.68;;
68192;SDS011;55012;47.562;18.414;2023-05-07T00:39:14;16.40;;;9.48;;
68192;SDS011;55012;47.562;18.414;2023-05-07T00:41:39;13.55;;;9.02;;
68192;SDS011;55012;47.562;18.414;2023-05-07T00:44:06;15.27;;;9.73;;
68192;SDS011;55012;47.562;18.414;2023-05-07T00:46:31;19.77;;;11.13;;
68192;SDS011;55012;47.562;18.414;2023-05-07T00:48:57;18.00;;;9.65;;
68192;SDS011;55012;47.562;18.414;2023-05-07T00:51:25;15.90;;;9.60;;
68192;SDS011;55012;47.562;18.414;2023-05-07T00:53:54;14.55;;;9.95;;
68192;SDS011;55012;47.562;18.414;2023-05-07T00:56:21;18.52;;;10.57;;
68192;SDS011;55012;47.562;18.414;2023-05-07T00:58:47;20.83;;;11.77;;
68192;SDS011;55012;47.562;18.414;2023-05-07T01:01:13;22.60;;;12.48;;
68192;SDS011;55012;47.562;18.414;2023-05-07T01:03:40;25.17;;;13.55;;
68192;SDS011;55012;47.562;18.414;2023-05-07T01:06:06;22.20;;;13.65;;
68192;SDS011;55012;47.562;18.414;2023-05-07T01:08:33;22.25;;;13.55;;
68192;SDS011;55012;47.562;18.414;2023-05-07T01:11:00;23.35;;;13.68;;
68192;SDS011;55012;47.562;18.414;2023-05-07T01:13:26;25.10;;;13.48;;
68192;SDS011;55012;47.562;18.414;2023-05-07T01:15:52;24.95;;;14.52;;
68192;SDS011;55012;47.562;18.414;2023-05-07T01:18:18;24.10;;;13.88;;
68192;SDS011;55012;47.562;18.414;2023-05-07T01:20:44;21.90;;;13.50;;
68192;SDS011;55012;47.562;18.414;2023-05-07T01:23:10;25.13;;;13.32;;
68192;SDS011;55012;47.562;18.414;2023-05-07T01:25:36;20.92;;;12.77;;
68192;SDS011;55012;47.562;18.414;2023-05-07T01:28:02;23.15;;;12.95;;
68192;SDS011;55012;47.562;18.414;2023-05-07T01:30:27;19.77;;;11.88;;
68192;SDS011;55012;47.562;18.414;2023-05-07T01:33:07;20.95;;;12.60;;
68192;SDS011;55012;47.562;18.414;2023-05-07T01:35:39;23.98;;;13.23;;
68192;SDS011;55012;47.562;18.414;2023-05-07T01:38:07;21.67;;;12.00;;
68192;SDS011;55012;47.562;18.414;2023-05-07T01:40:33;20.73;;;11.65;;
68192;SDS011;55012;47.562;18.414;2023-05-07T01:43:00;17.63;;;10.85;;
68192;SDS011;55012;47.562;18.414;2023-05-07T01:45:27;18.83;;;11.48;;
68192;SDS011;55012;47.562;18.414;2023-05-07T01:47:53;20.55;;;12.10;;
68192;SDS011;55012;47.562;18.414;2023-05-07T01:50:20;20.38;;;12.20;;
68192;SDS011;55012;47.562;18.414;2023-05-07T01:52:46;18.67;;;11.68;;
68192;SDS011;55012;47.562;18.414;2023-05-07T01:55:14;19.25;;;11.55;;
68192;SDS011;55012;47.562;18.414;2023-05-07T01:57:39;22.35;;;11.88;;
68192;SDS011;55012;47.562;18.414;2023-05-07T02:00:05;19.20;;;11.40;;
68192;SDS011;55012;47.562;18.414;2023-05-07T02:02:31;20.48;;;11.90;;
68192;SDS011;55012;47.562;18.414;2023-05-07T02:04:57;21.38;;;11.98;;
68192;SDS011;55012;47.562;18.414;2023-05-07T02:07:22;24.65;;;11.80;;
68192;SDS011;55012;47.562;18.414;2023-05-07T02:09:47;22.63;;;12.07;;
68192;SDS011;55012;47.562;18.414;2023-05-07T02:12:13;20.50;;;11.65;;
68192;SDS011;55012;47.562;18.414;2023-05-07T02:14:38;21.33;;;11.75;;
68192;SDS011;55012;47.562;18.414;2023-05-07T02:17:04;18.35;;;10.40;;
68192;SDS011;55012;47.562;18.414;2023-05-07T02:19:29;19.88;;;11.63;;
68192;SDS011;55012;47.562;18.414;2023-05-07T02:21:55;19.85;;;12.10;;
68192;SDS011;55012;47.562;18.414;2023-05-07T02:24:20;22.38;;;12.50;;
68192;SDS011;55012;47.562;18.414;2023-05-07T02:26:46;24.02;;;12.88;;
68192;SDS011;55012;47.562;18.414;2023-05-07T02:29:11;24.50;;;12.60;;
68192;SDS011;55012;47.562;18.414;2023-05-07T02:31:37;24.40;;;13.50;;
68192;SDS011;55012;47.562;18.414;2023-05-07T02:34:02;21.33;;;12.13;;
68192;SDS011;55012;47.562;18.414;2023-05-07T02:36:28;19.52;;;11.23;;
68192;SDS011;55012;47.562;18.414;2023-05-07T02:38:54;20.33;;;10.90;;
68192;SDS011;55012;47.562;18.414;2023-05-07T02:41:19;19.55;;;10.20;;
68192;SDS011;55012;47.562;18.414;2023-05-07T02:43:45;18.60;;;11.00;;
68192;SDS011;55012;47.562;18.414;2023-05-07T02:46:11;18.38;;;10.43;;
68192;SDS011;55012;47.562;18.414;2023-05-07T02:48:36;19.80;;;11.18;;
68192;SDS011;55012;47.562;18.414;2023-05-07T02:51:02;26.00;;;12.45;;
68192;SDS011;55012;47.562;18.414;2023-05-07T02:53:28;35.10;;;15.68;;
68192;SDS011;55012;47.562;18.414;2023-05-07T02:55:57;40.35;;;17.45;;
68192;SDS011;55012;47.562;18.414;2023-05-07T02:58:24;43.33;;;20.00;;
68192;SDS011;55012;47.562;18.414;2023-05-07T03:00:50;50.05;;;20.08;;
68192;SDS011;55012;47.562;18.414;2023-05-07T03:03:15;51.65;;;21.20;;
68192;SDS011;55012;47.562;18.414;2023-05-07T03:05:41;53.92;;;21.63;;
68192;SDS011;55012;47.562;18.414;2023-05-07T03:08:07;41.75;;;18.45;;
68192;SDS011;55012;47.562;18.414;2023-05-07T03:10:32;43.95;;;18.63;;
68192;SDS011;55012;47.562;18.414;2023-05-07T03:12:58;41.17;;;18.38;;
68192;SDS011;55012;47.562;18.414;2023-05-07T03:15:23;40.85;;;17.48;;
68192;SDS011;55012;47.562;18.414;2023-05-07T03:17:49;34.65;;;15.98;;
68192;SDS011;55012;47.562;18.414;2023-05-07T03:20:14;31.83;;;15.68;;
68192;SDS011;55012;47.562;18.414;2023-05-07T03:22:40;27.10;;;13.18;;
68192;SDS011;55012;47.562;18.414;2023-05-07T03:25:06;31.40;;;14.52;;
68192;SDS011;55012;47.562;18.414;2023-05-07T03:27:31;31.95;;;13.75;;
68192;SDS011;55012;47.562;18.414;2023-05-07T03:29:57;27.63;;;13.23;;
68192;SDS011;55012;47.562;18.414;2023-05-07T03:32:22;23.63;;;12.20;;
68192;SDS011;55012;47.562;18.414;2023-05-07T03:34:48;28.15;;;13.18;;
68192;SDS011;55012;47.562;18.414;2023-05-07T03:37:13;20.10;;;10.70;;
68192;SDS011;55012;47.562;18.414;2023-05-07T03:39:39;22.55;;;11.43;;
68192;SDS011;55012;47.562;18.414;2023-05-07T03:42:04;19.63;;;11.05;;
68192;SDS011;55012;47.562;18.414;2023-05-07T03:44:30;22.98;;;11.15;;
68192;SDS011;55012;47.562;18.414;2023-05-07T03:46:55;21.08;;;11.48;;
68192;SDS011;55012;47.562;18.414;2023-05-07T03:49:21;24.70;;;11.50;;
68192;SDS011;55012;47.562;18.414;2023-05-07T03:51:46;25.25;;;12.38;;
68192;SDS011;55012;47.562;18.414;2023-05-07T03:54:12;33.35;;;15.20;;
68192;SDS011;55012;47.562;18.414;2023-05-07T03:56:37;29.88;;;13.85;;
68192;SDS011;55012;47.562;18.414;2023-05-07T03:59:03;26.77;;;13.68;;
68192;SDS011;55012;47.562;18.414;2023-05-07T04:01:28;29.05;;;13.73;;
68192;SDS011;55012;47.562;18.414;2023-05-07T04:03:53;25.23;;;13.07;;
68192;SDS011;55012;47.562;18.414;2023-05-07T04:06:19;26.50;;;14.02;;
68192;SDS011;55012;47.562;18.414;2023-05-07T04:08:44;23.33;;;12.60;;
68192;SDS011;55012;47.562;18.414;2023-05-07T04:11:10;27.17;;;13.95;;
68192;SDS011;55012;47.562;18.414;2023-05-07T04:13:35;48.50;;;21.25;;
68192;SDS011;55012;47.562;18.414;2023-05-07T04:16:01;46.88;;;20.00;;
68192;SDS011;55012;47.562;18.414;2023-05-07T04:18:28;20.05;;;11.38;;
68192;SDS011;55012;47.562;18.414;2023-05-07T04:20:53;24.58;;;11.63;;
68192;SDS011;55012;47.562;18.414;2023-05-07T04:23:19;28.23;;;14.20;;
68192;SDS011;55012;47.562;18.414;2023-05-07T04:25:44;29.10;;;13.88;;
68192;SDS011;55012;47.562;18.414;2023-05-07T04:28:10;22.08;;;12.50;;
68192;SDS011;55012;47.562;18.414;2023-05-07T04:30:36;31.58;;;14.77;;
68192;SDS011;55012;47.562;18.414;2023-05-07T04:33:02;24.80;;;13.00;;
68192;SDS011;55012;47.562;18.414;2023-05-07T04:35:27;25.35;;;12.90;;
68192;SDS011;55012;47.562;18.414;2023-05-07T04:37:53;26.33;;;12.80;;
68192;SDS011;55012;47.562;18.414;2023-05-07T04:40:18;23.55;;;11.70;;
68192;SDS011;55012;47.562;18.414;2023-05-07T04:42:45;24.27;;;11.77;;
68192;SDS011;55012;47.562;18.414;2023-05-07T04:45:10;23.38;;;11.98;;
68192;SDS011;55012;47.562;18.414;2023-05-07T04:47:37;22.58;;;12.85;;
68192;SDS011;55012;47.562;18.414;2023-05-07T04:50:03;22.70;;;11.93;;
68192;SDS011;55012;47.562;18.414;2023-05-07T04:52:29;23.48;;;13.02;;
68192;SDS011;55012;47.562;18.414;2023-05-07T04:54:55;23.45;;;12.52;;
68192;SDS011;55012;47.562;18.414;2023-05-07T04:57:20;25.05;;;13.43;;
68192;SDS011;55012;47.562;18.414;2023-05-07T04:59:46;24.70;;;13.38;;
68192;SDS011;55012;47.562;18.414;2023-05-07T05:02:11;23.05;;;13.20;;
68192;SDS011;55012;47.562;18.414;2023-05-07T05:04:37;22.05;;;13.63;;
68192;SDS011;55012;47.562;18.414;2023-05-07T05:07:02;21.95;;;12.52;;
68192;SDS011;55012;47.562;18.414;2023-05-07T05:09:31;20.73;;;12.43;;
68192;SDS011;55012;47.562;18.414;2023-05-07T05:11:56;20.85;;;12.18;;
68192;SDS011;55012;47.562;18.414;2023-05-07T05:14:22;20.90;;;12.45;;
68192;SDS011;55012;47.562;18.414;2023-05-07T05:16:47;18.90;;;11.85;;
68192;SDS011;55012;47.562;18.414;2023-05-07T05:19:12;21.20;;;12.57;;
68192;SDS011;55012;47.562;18.414;2023-05-07T05:21:38;23.90;;;12.90;;
68192;SDS011;55012;47.562;18.414;2023-05-07T05:24:03;21.27;;;13.13;;
68192;SDS011;55012;47.562;18.414;2023-05-07T05:26:29;22.83;;;13.27;;
68192;SDS011;55012;47.562;18.414;2023-05-07T05:28:54;22.92;;;12.52;;
68192;SDS011;55012;47.562;18.414;2023-05-07T05:31:20;21.77;;;12.88;;
68192;SDS011;55012;47.562;18.414;2023-05-07T05:33:46;19.75;;;12.45;;
68192;SDS011;55012;47.562;18.414;2023-05-07T05:36:11;22.55;;;13.45;;
68192;SDS011;55012;47.562;18.414;2023-05-07T05:38:38;19.15;;;12.85;;
68192;SDS011;55012;47.562;18.414;2023-05-07T05:41:04;21.52;;;13.38;;
68192;SDS011;55012;47.562;18.414;2023-05-07T05:43:29;19.98;;;13.25;;
68192;SDS011;55012;47.562;18.414;2023-05-07T05:45:55;24.88;;;14.13;;
68192;SDS011;55012;47.562;18.414;2023-05-07T05:48:21;22.50;;;13.43;;
68192;SDS011;55012;47.562;18.414;2023-05-07T05:50:47;19.08;;;12.15;;
68192;SDS011;55012;47.562;18.414;2023-05-07T05:53:13;17.75;;;11.20;;
68192;SDS011;55012;47.562;18.414;2023-05-07T05:55:38;19.48;;;11.40;;
68192;SDS011;55012;47.562;18.414;2023-05-07T05:58:04;18.35;;;11.27;;
68192;SDS011;55012;47.562;18.414;2023-05-07T06:00:30;17.05;;;11.65;;
68192;SDS011;55012;47.562;18.414;2023-05-07T06:02:55;18.52;;;11.45;;
68192;SDS011;55012;47.562;18.414;2023-05-07T06:05:21;20.25;;;11.82;;
68192;SDS011;55012;47.562;18.414;2023-05-07T06:07:46;16.38;;;10.82;;
68192;SDS011;55012;47.562;18.414;2023-05-07T06:10:12;16.50;;;11.10;;
68192;SDS011;55012;47.562;18.414;2023-05-07T06:12:37;17.75;;;11.27;;
68192;SDS011;55012;47.562;18.414;2023-05-07T06:15:03;16.95;;;10.85;;
68192;SDS011;55012;47.562;18.414;2023-05-07T06:17:29;16.73;;;11.48;;
68192;SDS011;55012;47.562;18.414;2023-05-07T06:19:55;18.05;;;11.43;;
68192;SDS011;55012;47.562;18.414;2023-05-07T06:22:20;15.77;;;10.45;;
68192;SDS011;55012;47.562;18.414;2023-05-07T06:24:46;16.80;;;10.52;;
68192;SDS011;55012;47.562;18.414;2023-05-07T06:27:12;16.73;;;10.07;;
68192;SDS011;55012;47.562;18.414;2023-05-07T06:29:37;20.30;;;13.43;;
68192;SDS011;55012;47.562;18.414;2023-05-07T06:32:21;15.38;;;10.80;;
68192;SDS011;55012;47.562;18.414;2023-05-07T06:34:46;17.83;;;11.77;;
68192;SDS011;55012;47.562;18.414;2023-05-07T06:37:12;16.05;;;11.02;;
68192;SDS011;55012;47.562;18.414;2023-05-07T06:39:37;17.92;;;11.23;;
68192;SDS011;55012;47.562;18.414;2023-05-07T06:42:03;19.60;;;12.30;;
68192;SDS011;55012;47.562;18.414;2023-05-07T06:44:29;17.75;;;12.48;;
68192;SDS011;55012;47.562;18.414;2023-05-07T06:46:55;20.52;;;13.32;;
68192;SDS011;55012;47.562;18.414;2023-05-07T06:49:20;21.73;;;14.40;;
68192;SDS011;55012;47.562;18.414;2023-05-07T06:51:46;21.90;;;14.25;;
68192;SDS011;55012;47.562;18.414;2023-05-07T06:54:11;20.15;;;13.45;;
68192;SDS011;55012;47.562;18.414;2023-05-07T06:56:37;19.58;;;13.55;;
68192;SDS011;55012;47.562;18.414;2023-05-07T06:59:02;28.13;;;15.55;;
68192;SDS011;55012;47.562;18.414;2023-05-07T07:01:28;24.83;;;14.82;;
68192;SDS011;55012;47.562;18.414;2023-05-07T07:03:54;23.83;;;14.00;;
68192;SDS011;55012;47.562;18.414;2023-05-07T07:06:19;20.13;;;13.73;;
68192;SDS011;55012;47.562;18.414;2023-05-07T07:08:45;19.85;;;12.43;;
68192;SDS011;55012;47.562;18.414;2023-05-07T07:11:10;20.30;;;13.20;;
68192;SDS011;55012;47.562;18.414;2023-05-07T07:13:36;22.45;;;14.25;;
68192;SDS011;55012;47.562;18.414;2023-05-07T07:16:02;21.60;;;13.85;;
68192;SDS011;55012;47.562;18.414;2023-05-07T07:18:27;19.52;;;12.75;;
68192;SDS011;55012;47.562;18.414;2023-05-07T07:20:53;19.23;;;12.77;;
68192;SDS011;55012;47.562;18.414;2023-05-07T07:23:19;22.70;;;15.75;;
68192;SDS011;55012;47.562;18.414;2023-05-07T07:25:44;36.28;;;20.23;;
68192;SDS011;55012;47.562;18.414;2023-05-07T07:28:09;27.60;;;18.20;;
68192;SDS011;55012;47.562;18.414;2023-05-07T07:30:38;24.58;;;16.25;;
68192;SDS011;55012;47.562;18.414;2023-05-07T07:33:04;20.00;;;13.02;;
68192;SDS011;55012;47.562;18.414;2023-05-07T07:35:31;18.02;;;12.13;;
68192;SDS011;55012;47.562;18.414;2023-05-07T07:37:57;19.65;;;12.88;;
68192;SDS011;55012;47.562;18.414;2023-05-07T07:40:23;22.50;;;14.98;;
68192;SDS011;55012;47.562;18.414;2023-05-07T07:42:49;18.33;;;11.43;;
68192;SDS011;55012;47.562;18.414;2023-05-07T07:45:15;19.58;;;13.20;;
68192;SDS011;55012;47.562;18.414;2023-05-07T07:47:41;17.80;;;12.93;;
68192;SDS011;55012;47.562;18.414;2023-05-07T07:50:06;19.45;;;12.43;;
68192;SDS011;55012;47.562;18.414;2023-05-07T07:52:32;19.48;;;13.88;;
68192;SDS011;55012;47.562;18.414;2023-05-07T07:54:58;19.52;;;13.88;;
68192;SDS011;55012;47.562;18.414;2023-05-07T07:57:24;22.38;;;15.85;;
68192;SDS011;55012;47.562;18.414;2023-05-07T07:59:49;22.90;;;15.70;;
68192;SDS011;55012;47.562;18.414;2023-05-07T08:02:15;22.58;;;15.80;;
68192;SDS011;55012;47.562;18.414;2023-05-07T08:04:41;24.05;;;16.27;;
68192;SDS011;55012;47.562;18.414;2023-05-07T08:07:10;23.85;;;16.45;;
68192;SDS011;55012;47.562;18.414;2023-05-07T08:09:39;24.77;;;17.60;;
68192;SDS011;55012;47.562;18.414;2023-05-07T08:12:06;26.23;;;17.27;;
68192;SDS011;55012;47.562;18.414;2023-05-07T08:14:32;25.30;;;17.83;;
68192;SDS011;55012;47.562;18.414;2023-05-07T08:16:58;24.27;;;16.88;;
68192;SDS011;55012;47.562;18.414;2023-05-07T08:19:23;24.05;;;17.17;;
68192;SDS011;55012;47.562;18.414;2023-05-07T08:21:49;22.55;;;16.42;;
68192;SDS011;55012;47.562;18.414;2023-05-07T08:24:15;22.17;;;15.93;;
68192;SDS011;55012;47.562;18.414;2023-05-07T08:26:41;20.45;;;15.60;;
68192;SDS011;55012;47.562;18.414;2023-05-07T08:29:07;21.17;;;15.13;;
68192;SDS011;55012;47.562;18.414;2023-05-07T08:31:33;21.42;;;15.48;;
68192;SDS011;55012;47.562;18.414;2023-05-07T08:33:58;21.52;;;15.40;;
68192;SDS011;55012;47.562;18.414;2023-05-07T08:36:24;20.33;;;15.38;;
68192;SDS011;55012;47.562;18.414;2023-05-07T08:38:50;22.00;;;15.48;;
68192;SDS011;55012;47.562;18.414;2023-05-07T08:41:16;20.42;;;15.25;;
68192;SDS011;55012;47.562;18.414;2023-05-07T08:43:42;22.13;;;16.33;;
68192;SDS011;55012;47.562;18.414;2023-05-07T08:46:20;25.40;;;17.73;;
68192;SDS011;55012;47.562;18.414;2023-05-07T08:48:50;24.73;;;17.75;;
68192;SDS011;55012;47.562;18.414;2023-05-07T08:51:17;24.85;;;18.30;;
68192;SDS011;55012;47.562;18.414;2023-05-07T08:53:43;25.50;;;18.35;;
68192;SDS011;55012;47.562;18.414;2023-05-07T08:56:10;26.48;;;19.02;;
68192;SDS011;55012;47.562;18.414;2023-05-07T08:58:36;28.40;;;18.88;;
68192;SDS011;55012;47.562;18.414;2023-05-07T09:01:07;27.85;;;19.52;;
68192;SDS011;55012;47.562;18.414;2023-05-07T09:03:34;28.15;;;19.38;;
68192;SDS011;55012;47.562;18.414;2023-05-07T09:06:01;25.80;;;17.85;;
68192;SDS011;55012;47.562;18.414;2023-05-07T09:08:27;26.08;;;18.40;;
68192;SDS011;55012;47.562;18.414;2023-05-07T09:10:53;25.48;;;18.50;;
68192;SDS011;55012;47.562;18.414;2023-05-07T09:13:19;28.50;;;19.70;;
68192;SDS011;55012;47.562;18.414;2023-05-07T09:15:45;27.33;;;18.98;;
68192;SDS011;55012;47.562;18.414;2023-05-07T09:18:11;28.02;;;18.73;;
68192;SDS011;55012;47.562;18.414;2023-05-07T09:20:38;28.88;;;20.48;;
68192;SDS011;55012;47.562;18.414;2023-05-07T09:23:05;28.95;;;20.27;;
68192;SDS011;55012;47.562;18.414;2023-05-07T09:25:33;32.72;;;21.52;;
68192;SDS011;55012;47.562;18.414;2023-05-07T09:28:00;29.52;;;20.13;;
68192;SDS011;55012;47.562;18.414;2023-05-07T09:30:31;33.78;;;23.63;;
68192;SDS011;55012;47.562;18.414;2023-05-07T09:32:59;30.55;;;21.30;;
68192;SDS011;55012;47.562;18.414;2023-05-07T09:35:25;34.08;;;22.70;;
68192;SDS011;55012;47.562;18.414;2023-05-07T09:37:58;33.50;;;23.77;;
68192;SDS011;55012;47.562;18.414;2023-05-07T09:40:25;31.73;;;22.80;;
68192;SDS011;55012;47.562;18.414;2023-05-07T09:42:52;30.25;;;21.50;;
68192;SDS011;55012;47.562;18.414;2023-05-07T09:45:28;29.58;;;21.55;;
68192;SDS011;55012;47.562;18.414;2023-05-07T09:47:57;28.17;;;19.52;;
68192;SDS011;55012;47.562;18.414;2023-05-07T09:50:27;31.92;;;21.50;;
68192;SDS011;55012;47.562;18.414;2023-05-07T09:52:54;28.17;;;20.60;;
68192;SDS011;55012;47.562;18.414;2023-05-07T09:55:21;27.25;;;19.83;;
68192;SDS011;55012;47.562;18.414;2023-05-07T09:57:48;27.77;;;20.15;;
68192;SDS011;55012;47.562;18.414;2023-05-07T10:00:15;23.80;;;18.00;;
68192;SDS011;55012;47.562;18.414;2023-05-07T10:02:44;22.65;;;17.35;;
68192;SDS011;55012;47.562;18.414;2023-05-07T10:05:13;26.30;;;18.52;;
68192;SDS011;55012;47.562;18.414;2023-05-07T10:07:40;24.45;;;18.10;;
68192;SDS011;55012;47.562;18.414;2023-05-07T10:10:06;23.60;;;16.98;;
68192;SDS011;55012;47.562;18.414;2023-05-07T10:12:32;21.65;;;15.82;;
68192;SDS011;55012;47.562;18.414;2023-05-07T10:15:04;21.85;;;17.00;;
68192;SDS011;55012;47.562;18.414;2023-05-07T10:17:31;24.92;;;18.20;;
68192;SDS011;55012;47.562;18.414;2023-05-07T10:19:58;21.88;;;16.85;;
68192;SDS011;55012;47.562;18.414;2023-05-07T10:22:23;23.02;;;18.25;;
68192;SDS011;55012;47.562;18.414;2023-05-07T10:24:52;23.23;;;18.55;;
68192;SDS011;55012;47.562;18.414;2023-05-07T10:27:20;21.13;;;16.95;;
68192;SDS011;55012;47.562;18.414;2023-05-07T10:32:42;21.27;;;16.30;;
68192;SDS011;55012;47.562;18.414;2023-05-07T10:35:26;21.00;;;16.65;;
68192;SDS011;55012;47.562;18.414;2023-05-07T10:37:55;24.65;;;17.05;;
68192;SDS011;55012;47.562;18.414;2023-05-07T10:40:20;23.20;;;18.00;;
68192;SDS011;55012;47.562;18.414;2023-05-07T10:42:53;20.17;;;15.95;;
68192;SDS011;55012;47.562;18.414;2023-05-07T10:45:23;22.42;;;16.65;;
68192;SDS011;55012;47.562;18.414;2023-05-07T10:50:36;22.05;;;17.42;;
68192;SDS011;55012;47.562;18.414;2023-05-07T10:53:21;22.02;;;17.60;;
68192;SDS011;55012;47.562;18.414;2023-05-07T10:58:34;20.23;;;16.50;;
68192;SDS011;55012;47.562;18.414;2023-05-07T11:01:02;21.15;;;16.90;;
68192;SDS011;55012;47.562;18.414;2023-05-07T11:03:28;20.45;;;16.30;;
68192;SDS011;55012;47.562;18.414;2023-05-07T11:14:09;14.75;;;12.43;;
68192;SDS011;55012;47.562;18.414;2023-05-07T11:16:35;15.32;;;11.98;;
68192;SDS011;55012;47.562;18.414;2023-05-07T11:19:03;15.55;;;12.05;;
68192;SDS011;55012;47.562;18.414;2023-05-07T11:24:05;14.00;;;11.63;;
68192;SDS011;55012;47.562;18.414;2023-05-07T11:26:45;12.07;;;9.68;;
68192;SDS011;55012;47.562;18.414;2023-05-07T11:29:11;10.05;;;8.70;;
68192;SDS011;55012;47.562;18.414;2023-05-07T11:31:38;9.55;;;8.35;;
68192;SDS011;55012;47.562;18.414;2023-05-07T11:34:03;9.88;;;7.50;;
68192;SDS011;55012;47.562;18.414;2023-05-07T11:36:31;10.15;;;8.32;;
68192;SDS011;55012;47.562;18.414;2023-05-07T11:38:57;9.98;;;7.75;;
68192;SDS011;55012;47.562;18.414;2023-05-07T11:41:22;8.23;;;7.05;;
68192;SDS011;55012;47.562;18.414;2023-05-07T11:43:58;9.73;;;7.68;;
68192;SDS011;55012;47.562;18.414;2023-05-07T11:46:24;10.88;;;8.48;;
68192;SDS011;55012;47.562;18.414;2023-05-07T11:48:52;9.52;;;8.07;;
68192;SDS011;55012;47.562;18.414;2023-05-07T11:51:19;11.38;;;7.50;;
68192;SDS011;55012;47.562;18.414;2023-05-07T11:53:46;10.70;;;7.32;;
68192;SDS011;55012;47.562;18.414;2023-05-07T11:56:12;10.15;;;8.07;;
68192;SDS011;55012;47.562;18.414;2023-05-07T11:58:39;8.45;;;6.68;;
68192;SDS011;55012;47.562;18.414;2023-05-07T12:01:09;6.05;;;5.25;;
68192;SDS011;55012;47.562;18.414;2023-05-07T12:03:44;6.28;;;5.38;;
68192;SDS011;55012;47.562;18.414;2023-05-07T12:06:11;6.95;;;5.57;;
68192;SDS011;55012;47.562;18.414;2023-05-07T12:08:38;7.68;;;6.60;;
68192;SDS011;55012;47.562;18.414;2023-05-07T12:11:24;9.27;;;6.72;;
68192;SDS011;55012;47.562;18.414;2023-05-07T12:13:50;7.88;;;6.07;;
68192;SDS011;55012;47.562;18.414;2023-05-07T12:16:16;8.43;;;6.13;;
68192;SDS011;55012;47.562;18.414;2023-05-07T12:18:43;7.22;;;6.10;;
68192;SDS011;55012;47.562;18.414;2023-05-07T12:21:09;9.48;;;7.60;;
68192;SDS011;55012;47.562;18.414;2023-05-07T12:23:36;11.07;;;8.50;;
68192;SDS011;55012;47.562;18.414;2023-05-07T12:26:02;9.57;;;7.68;;
68192;SDS011;55012;47.562;18.414;2023-05-07T12:28:28;10.60;;;8.35;;
68192;SDS011;55012;47.562;18.414;2023-05-07T12:30:53;11.45;;;8.40;;
68192;SDS011;55012;47.562;18.414;2023-05-07T12:33:23;13.35;;;9.50;;
68192;SDS011;55012;47.562;18.414;2023-05-07T12:35:50;11.30;;;7.90;;
68192;SDS011;55012;47.562;18.414;2023-05-07T12:38:19;10.73;;;8.57;;
68192;SDS011;55012;47.562;18.414;2023-05-07T12:40:48;11.25;;;8.52;;
68192;SDS011;55012;47.562;18.414;2023-05-07T12:45:52;14.10;;;9.05;;
68192;SDS011;55012;47.562;18.414;2023-05-07T12:48:19;13.25;;;9.65;;
68192;SDS011;55012;47.562;18.414;2023-05-07T12:50:49;13.80;;;9.77;;
68192;SDS011;55012;47.562;18.414;2023-05-07T12:53:25;12.27;;;8.88;;
68192;SDS011;55012;47.562;18.414;2023-05-07T12:55:52;9.80;;;7.55;;
68192;SDS011;55012;47.562;18.414;2023-05-07T13:00:52;10.25;;;8.13;;
68192;SDS011;55012;47.562;18.414;2023-05-07T13:03:28;12.23;;;8.20;;
68192;SDS011;55012;47.562;18.414;2023-05-07T13:06:29;8.80;;;6.55;;
68192;SDS011;55012;47.562;18.414;2023-05-07T13:08:46;8.43;;;6.72;;
68192;SDS011;55012;47.562;18.414;2023-05-07T13:11:12;9.00;;;6.60;;
68192;SDS011;55012;47.562;18.414;2023-05-07T13:13:38;8.73;;;6.75;;
68192;SDS011;55012;47.562;18.414;2023-05-07T13:16:06;9.57;;;7.35;;
68192;SDS011;55012;47.562;18.414;2023-05-07T13:18:33;9.60;;;6.75;;
68192;SDS011;55012;47.562;18.414;2023-05-07T13:20:59;9.38;;;6.32;;
68192;SDS011;55012;47.562;18.414;2023-05-07T13:23:26;8.02;;;6.20;;
68192;SDS011;55012;47.562;18.414;2023-05-07T13:25:52;7.82;;;5.75;;
68192;SDS011;55012;47.562;18.414;2023-05-07T13:28:19;8.23;;;5.93;;
68192;SDS011;55012;47.562;18.414;2023-05-07T13:30:45;6.65;;;5.63;;
68192;SDS011;55012;47.562;18.414;2023-05-07T13:33:11;8.65;;;5.40;;
68192;SDS011;55012;47.562;18.414;2023-05-07T13:35:36;6.20;;;5.32;;
68192;SDS011;55012;47.562;18.414;2023-05-07T13:38:02;6.85;;;5.00;;
68192;SDS011;55012;47.562;18.414;2023-05-07T13:40:28;5.70;;;5.10;;
68192;SDS011;55012;47.562;18.414;2023-05-07T13:42:53;6.05;;;4.55;;
68192;SDS011;55012;47.562;18.414;2023-05-07T13:45:19;5.47;;;4.93;;
68192;SDS011;55012;47.562;18.414;2023-05-07T13:47:45;5.97;;;4.07;;
68192;SDS011;55012;47.562;18.414;2023-05-07T13:50:11;5.25;;;4.45;;
68192;SDS011;55012;47.562;18.414;2023-05-07T13:52:39;5.68;;;4.63;;
68192;SDS011;55012;47.562;18.414;2023-05-07T13:55:08;5.65;;;4.28;;
68192;SDS011;55012;47.562;18.414;2023-05-07T13:57:34;5.40;;;4.68;;
68192;SDS011;55012;47.562;18.414;2023-05-07T14:00:00;6.55;;;4.90;;
68192;SDS011;55012;47.562;18.414;2023-05-07T14:02:25;6.13;;;4.63;;
68192;SDS011;55012;47.562;18.414;2023-05-07T14:04:51;6.10;;;4.60;;
68192;SDS011;55012;47.562;18.414;2023-05-07T14:07:16;5.63;;;4.45;;
68192;SDS011;55012;47.562;18.414;2023-05-07T14:09:41;4.85;;;4.00;;
68192;SDS011;55012;47.562;18.414;2023-05-07T14:12:07;5.88;;;4.40;;
68192;SDS011;55012;47.562;18.414;2023-05-07T14:14:32;5.05;;;4.00;;
68192;SDS011;55012;47.562;18.414;2023-05-07T14:16:58;6.05;;;4.03;;
68192;SDS011;55012;47.562;18.414;2023-05-07T14:19:23;5.32;;;4.60;;
68192;SDS011;55012;47.562;18.414;2023-05-07T14:21:49;5.53;;;4.57;;
68192;SDS011;55012;47.562;18.414;2023-05-07T14:24:14;6.57;;;4.85;;
68192;SDS011;55012;47.562;18.414;2023-05-07T14:26:39;5.60;;;5.00;;
68192;SDS011;55012;47.562;18.414;2023-05-07T14:29:05;7.55;;;4.60;;
68192;SDS011;55012;47.562;18.414;2023-05-07T14:31:31;5.65;;;5.05;;
68192;SDS011;55012;47.562;18.414;2023-05-07T14:33:56;6.15;;;4.88;;